This is the latest recevied weather packets stored in our database for station/object KG5WBN. If no packets are shown the sender has not sent any weather packets the latest 10 day(s).
| Time | Temp. | Humidity | Pressure | Rain* | Wind** | Luminosity | Snow |
|---|---|---|---|---|---|---|---|
| 1787872626 | 28.33° C | 53% | 1012.5 hPa | 0 mm | - | 22 W/m² | - |
| 1787872321 | 28.33° C | 53% | 1012.2 hPa | 0 mm | - | 23 W/m² | - |
| 1787872015 | 28.89° C | 53% | 1012.5 hPa | 0 mm | - | 25 W/m² | - |
| 1787871706 | 28.89° C | 53% | 1012.5 hPa | 0 mm | - | 25 W/m² | - |
| 1787871401 | 29.44° C | 52% | 1012.5 hPa | 0 mm | - | 27 W/m² | - |
| 1787871096 | 29.44° C | 51% | 1012.5 hPa | 0 mm | - | 44 W/m² | - |
| 1787870795 | 30° C | 49% | 1012.5 hPa | 0 mm | - | 44 W/m² | - |
| 1787870490 | 30.56° C | 47% | 1012.5 hPa | 0 mm | - | 60 W/m² | - |
| 1787870185 | 30.56° C | 47% | 1012.5 hPa | 0 mm | - | 241 W/m² | - |
| 1787869880 | 30.56° C | 49% | 1012.5 hPa | 0 mm | - | 258 W/m² | - |
| 1787869578 | 30° C | 51% | 1012.5 hPa | 0 mm | - | 266 W/m² | - |
| 1787869274 | 31.67° C | 45% | 1012.5 hPa | 0 mm | - | 271 W/m² | - |
| 1787868973 | 29.44° C | 52% | 1012.9 hPa | 0 mm | - | 282 W/m² | - |
| 1787868673 | 29.44° C | 52% | 1012.5 hPa | 0 mm | - | 263 W/m² | - |
| 1787868371 | 30.56° C | 51% | 1012.5 hPa | 0 mm | - | 151 W/m² | - |
| 1787868067 | 30.56° C | 51% | 1012.5 hPa | 0 mm | - | 151 W/m² | - |
| 1787867761 | 31.11° C | 51% | 1012.5 hPa | 0 mm | - | 183 W/m² | - |
| 1787867456 | 30.56° C | 51% | 1012.5 hPa | 0 mm | - | 318 W/m² | - |
| 1787867152 | 30.56° C | 51% | 1012.9 hPa | 0 mm | - | 324 W/m² | - |
| 1787866847 | 31.67° C | 50% | 1012.9 hPa | 0 mm | - | 333 W/m² | - |
| 1787866542 | 30.56° C | 52% | 1012.9 hPa | 0 mm | - | 335 W/m² | - |
| 1787866240 | 31.11° C | 51% | 1012.9 hPa | 0 mm | - | 343 W/m² | - |
| 1787865936 | 30.56° C | 52% | 1012.9 hPa | 0 mm | - | 333 W/m² | - |
| 1787865631 | 30° C | 53% | 1012.9 hPa | 0 mm | - | 283 W/m² | - |
| 1787865331 | 30.56° C | 52% | 1012.9 hPa | 0 mm | - | 217 W/m² | - |
* Rain latest hour (hover to see other rain measurements)
** Current wind speed in m/s (hover to see current wind gust speed)